Time;durP1;ratioP1;P1;durP2;ratioP2;P2;SDS_P1;SDS_P2;PMS_P1;PMS_P2;Temp;Humidity;BMP_temperature;BMP_pressure;BME280_temperature;BME280_humidity;BME280_pressure;Samples;Min_cycle;Max_cycle;Signal;HPM_P1;HPM_P2
2023/04/26 00:01:05;;;;;;;;;16.50;16.50;;;;;12.42;51.23;101273.31;2094967;28;46848;-68
2023/04/26 00:02:05;;;;;;;;;23.00;21.20;;;;;12.42;51.44;101278.66;2095569;28;46414;-69
2023/04/26 00:03:06;;;;;;;;;23.00;18.00;;;;;12.41;51.34;101278.69;2088285;28;46429;-67
2023/04/26 00:04:07;;;;;;;;;21.80;21.80;;;;;12.40;51.33;101284.91;2082762;28;46504;-68
2023/04/26 00:05:08;;;;;;;;;22.20;21.20;;;;;12.38;51.52;101276.97;2080796;28;46647;-68
2023/04/26 00:06:09;;;;;;;;;20.50;19.00;;;;;12.37;51.52;101284.06;2088238;28;46688;-69
2023/04/26 00:07:09;;;;;;;;;17.25;17.25;;;;;12.36;51.49;101284.09;2085716;28;45595;-69
2023/04/26 00:08:09;;;;;;;;;21.25;20.75;;;;;12.34;51.39;101283.28;2085682;28;46891;-69
2023/04/26 00:09:10;;;;;;;;;22.50;21.00;;;;;12.33;51.52;101286.84;2095064;28;46295;-69
2023/04/26 00:10:11;;;;;;;;;19.50;19.50;;;;;12.33;51.40;101281.50;2089992;28;45469;-69
2023/04/26 00:11:11;;;;;;;;;22.00;19.50;;;;;12.31;51.41;101291.28;2087613;28;45805;-68
2023/04/26 00:12:11;;;;;;;;;20.75;19.75;;;;;12.32;51.37;101288.63;2088912;28;45947;-70
2023/04/26 00:13:12;;;;;;;;;21.00;20.75;;;;;12.33;51.33;101286.84;2088289;28;47338;-70
2023/04/26 00:14:13;;;;;;;;;21.75;21.50;;;;;12.32;51.37;101288.63;2089114;28;45476;-70
2023/04/26 00:15:13;;;;;;;;;22.00;20.50;;;;;12.31;51.29;101286.84;2089049;28;45636;-68
2023/04/26 00:16:14;;;;;;;;;25.00;21.50;;;;;12.31;51.40;101293.94;2091458;28;46597;-69
2023/04/26 00:17:14;;;;;;;;;13.25;12.75;;;;;12.30;51.43;101290.41;2087654;28;46355;-69
2023/04/26 00:18:16;;;;;;;;;21.25;21.25;;;;;12.28;51.48;101294.00;2080275;28;46313;-69
2023/04/26 00:19:17;;;;;;;;;21.00;19.60;;;;;12.28;51.29;101291.34;2085356;28;46150;-69
2023/04/26 00:20:17;;;;;;;;;23.25;23.25;;;;;12.27;51.51;101285.16;2094078;28;46028;-70
2023/04/26 00:21:17;;;;;;;;;22.00;22.00;;;;;12.27;51.69;101293.13;2093123;28;46652;-68
2023/04/26 00:22:17;;;;;;;;;22.25;21.75;;;;;12.27;51.43;101289.59;2095513;28;46467;-69
2023/04/26 00:23:18;;;;;;;;;23.00;20.75;;;;;12.26;51.44;101287.84;2096840;28;46644;-69
2023/04/26 00:24:18;;;;;;;;;24.00;21.00;;;;;12.25;51.54;101283.44;2097337;28;45803;-70
2023/04/26 00:25:18;;;;;;;;;25.25;24.75;;;;;12.25;51.50;101276.34;2096971;28;45486;-70
2023/04/26 00:26:19;;;;;;;;;22.75;22.75;;;;;12.25;51.61;101276.34;2092817;28;46025;-70
2023/04/26 00:27:19;;;;;;;;;20.50;20.50;;;;;12.23;51.64;101275.50;2087640;28;46494;-69
2023/04/26 00:28:20;;;;;;;;;22.00;20.75;;;;;12.22;51.74;101272.88;2089153;28;45800;-69
2023/04/26 00:29:21;;;;;;;;;23.00;22.75;;;;;12.21;51.63;101271.13;2088819;28;45670;-69
2023/04/26 00:30:21;;;;;;;;;23.00;22.00;;;;;12.20;51.73;101266.69;2088655;28;46097;-69
2023/04/26 00:31:22;;;;;;;;;24.25;22.75;;;;;12.17;52.11;101272.06;2096152;28;46464;-70
2023/04/26 00:32:22;;;;;;;;;23.50;22.75;;;;;12.17;51.81;101266.72;2093254;28;46286;-70
2023/04/26 00:33:23;;;;;;;;;22.00;22.00;;;;;12.14;51.75;101264.13;2097209;28;46988;-70
2023/04/26 00:34:23;;;;;;;;;19.25;19.25;;;;;12.13;51.74;101265.06;2092598;28;46908;-69
2023/04/26 00:35:24;;;;;;;;;22.75;20.25;;;;;12.12;51.93;101260.63;2088065;28;46037;-69
2023/04/26 00:36:25;;;;;;;;;22.75;21.00;;;;;12.11;51.81;101253.56;2088621;28;46819;-69
2023/04/26 00:37:25;;;;;;;;;24.00;24.00;;;;;12.10;51.78;101252.69;2088825;28;45849;-68
2023/04/26 00:38:25;;;;;;;;;22.50;21.00;;;;;12.08;51.76;101259.81;2087503;28;46911;-69
2023/04/26 00:39:26;;;;;;;;;17.00;15.75;;;;;12.08;51.86;101262.50;2089927;28;47460;-70
2023/04/26 00:40:26;;;;;;;;;18.75;18.50;;;;;12.06;51.97;101261.63;2088631;28;46211;-70
2023/04/26 00:41:27;;;;;;;;;18.25;17.25;;;;;12.06;51.95;101264.28;2088589;28;47201;-69
2023/04/26 00:42:27;;;;;;;;;19.25;17.25;;;;;12.05;51.91;101258.06;2090116;28;46235;-70
2023/04/26 00:43:27;;;;;;;;;20.25;19.25;;;;;12.04;51.71;101259.00;2096749;28;46481;-68
2023/04/26 00:44:28;;;;;;;;;17.25;17.25;;;;;12.03;51.78;101262.56;2087371;28;45924;-70
2023/04/26 00:45:29;;;;;;;;;18.75;18.25;;;;;12.03;51.95;101257.22;2088410;28;46193;-69
2023/04/26 00:46:30;;;;;;;;;18.20;18.20;;;;;12.02;52.01;101255.47;2087457;28;47054;-68
2023/04/26 00:47:30;;;;;;;;;17.50;17.00;;;;;12.02;52.04;101251.94;2091668;28;46721;-70
2023/04/26 00:48:31;;;;;;;;;17.00;15.50;;;;;12.02;52.02;101254.59;2096913;28;46984;-69
2023/04/26 00:49:31;;;;;;;;;20.75;19.25;;;;;12.00;51.85;101257.31;2089392;28;45585;-68
2023/04/26 00:50:32;;;;;;;;;17.75;16.75;;;;;11.99;52.18;101257.34;2088833;28;46715;-68
2023/04/26 00:51:32;;;;;;;;;17.50;17.50;;;;;12.00;52.12;101248.44;2097222;28;45874;-70
2023/04/26 00:52:33;;;;;;;;;23.00;21.00;;;;;11.98;52.15;101251.13;2083187;28;45558;-69
2023/04/26 00:53:34;;;;;;;;;21.25;19.75;;;;;11.98;51.93;101247.59;2079098;28;45717;-70
2023/04/26 00:54:34;;;;;;;;;15.20;15.00;;;;;11.96;51.95;101246.75;2087382;28;45973;-69
2023/04/26 00:55:35;;;;;;;;;18.50;17.25;;;;;11.96;51.98;101242.31;2079064;28;46337;-70
2023/04/26 00:56:37;;;;;;;;;21.50;18.25;;;;;11.96;52.23;101244.97;2078304;28;46858;-70
2023/04/26 00:57:38;;;;;;;;;20.20;19.20;;;;;11.94;52.09;101249.44;2080950;28;46345;-69
2023/04/26 00:58:38;;;;;;;;;22.80;21.20;;;;;11.93;51.98;101250.31;2080674;28;46038;-68
2023/04/26 00:59:40;;;;;;;;;21.25;21.25;;;;;11.93;51.84;101254.78;2087442;28;46654;-69
2023/04/26 01:00:40;;;;;;;;;29.80;25.40;;;;;11.90;52.30;101239.75;2087391;28;46720;-69
2023/04/26 01:01:41;;;;;;;;;32.25;26.75;;;;;11.91;51.99;101253.94;2087543;28;46802;-68
2023/04/26 01:02:41;;;;;;;;;31.00;29.00;;;;;11.89;51.52;101245.97;2079058;28;47258;-69
2023/04/26 01:03:44;;;;;;;;;29.50;26.25;;;;;11.88;51.98;101249.56;2082390;28;46311;-68
2023/04/26 01:04:44;;;;;;;;;29.00;27.40;;;;;11.88;51.81;101243.34;2087511;28;46797;-69
2023/04/26 01:05:45;;;;;;;;;24.00;22.00;;;;;11.86;51.72;101248.72;2078963;28;46351;-69
2023/04/26 01:06:46;;;;;;;;;28.25;28.25;;;;;11.84;52.16;101242.53;2079199;28;45590;-69
2023/04/26 01:07:46;;;;;;;;;28.25;26.50;;;;;11.83;52.10;101242.56;2087362;28;46613;-69
2023/04/26 01:08:50;;;;;;;;;22.00;21.25;;;;;11.82;52.10;101240.81;2081433;28;45772;-69
2023/04/26 01:09:51;;;;;;;;;30.40;29.20;;;;;11.81;51.97;101247.00;2079073;28;47426;-69
2023/04/26 01:10:52;;;;;;;;;27.40;27.00;;;;;11.79;52.22;101239.06;2071135;28;45894;-69
2023/04/26 01:11:55;;;;;;;;;30.00;27.75;;;;;11.81;52.07;101239.03;2077473;28;45485;-69
2023/04/26 01:12:56;;;;;;;;;26.60;23.60;;;;;11.78;52.49;101237.28;2087569;28;46232;-68
2023/04/26 01:13:57;;;;;;;;;25.80;24.80;;;;;11.77;52.17;101224.91;2085165;28;46496;-69
2023/04/26 01:14:59;;;;;;;;;26.00;25.25;;;;;11.77;52.04;101227.56;2085530;28;46345;-68
2023/04/26 01:16:01;;;;;;;;;28.40;25.20;;;;;11.76;52.16;101231.13;2079282;28;45917;-69
2023/04/26 01:17:02;;;;;;;;;25.20;24.20;;;;;11.75;52.17;101224.94;2079503;28;46177;-70
2023/04/26 01:18:02;;;;;;;;;22.60;21.00;;;;;11.72;52.01;101227.66;2079074;28;46471;-69
2023/04/26 01:19:11;;;;;;;;;24.25;22.75;;;;;11.70;52.20;101226.81;2086814;28;45019;-70
2023/04/26 01:20:13;;;;;;;;;25.40;22.20;;;;;11.67;52.34;101226.84;2085459;28;46583;-69
2023/04/26 01:21:22;;;;;;;;;23.00;23.00;;;;;11.66;52.43;101232.19;2079217;28;46562;-70
2023/04/26 01:22:22;;;;;;;;;23.40;22.60;;;;;11.64;52.40;101226.91;2079165;28;46436;-71
2023/04/26 01:23:22;;;;;;;;;21.50;19.00;;;;;11.64;52.28;101226.91;2082659;28;45438;-68
2023/04/26 01:24:23;;;;;;;;;18.25;18.00;;;;;11.64;52.42;101226.91;2093186;28;46744;-69
2023/04/26 01:25:23;;;;;;;;;22.50;19.00;;;;;11.63;52.55;101227.81;2089545;28;44857;-69
2023/04/26 01:26:23;;;;;;;;;21.25;21.25;;;;;11.63;52.45;101230.47;2090187;28;46428;-68
2023/04/26 01:27:24;;;;;;;;;21.25;19.00;;;;;11.63;52.28;101229.59;2097010;28;45635;-70
2023/04/26 01:28:24;;;;;;;;;14.50;14.50;;;;;11.62;52.26;101225.19;2096496;28;46277;-72
2023/04/26 01:29:26;;;;;;;;;17.75;17.75;;;;;11.61;52.22;101218.13;2092163;28;46716;-69
2023/04/26 01:30:26;;;;;;;;;18.80;17.40;;;;;11.59;52.11;101215.50;2094321;28;46406;-68
2023/04/26 01:31:26;;;;;;;;;21.00;16.00;;;;;11.58;52.33;101208.41;2091791;28;46848;-69
2023/04/26 01:32:27;;;;;;;;;19.50;18.50;;;;;11.58;52.55;101204.88;2089987;28;46487;-69
2023/04/26 01:33:27;;;;;;;;;13.75;13.75;;;;;11.56;52.23;101204.91;2095141;28;46661;-69
2023/04/26 01:34:27;;;;;;;;;16.00;14.50;;;;;11.57;52.40;101208.47;2095244;28;45885;-69
2023/04/26 01:35:28;;;;;;;;;17.25;17.25;;;;;11.55;52.66;101210.22;2096795;28;46296;-68
2023/04/26 01:36:28;;;;;;;;;14.75;14.75;;;;;11.54;52.28;101205.81;2095893;28;44979;-69
2023/04/26 01:37:28;;;;;;;;;15.25;15.00;;;;;11.50;52.47;101203.22;2096082;28;45759;-69
2023/04/26 01:38:28;;;;;;;;;12.75;11.75;;;;;11.49;52.41;101208.56;2087750;28;45887;-70
2023/04/26 01:39:29;;;;;;;;;16.75;16.75;;;;;11.49;52.63;101200.59;2087992;28;46334;-70
2023/04/26 01:40:29;;;;;;;;;15.75;15.00;;;;;11.47;52.73;101202.41;2083275;28;46529;-69
2023/04/26 01:41:30;;;;;;;;;17.25;17.00;;;;;11.46;52.69;101205.97;2088566;28;46626;-70
2023/04/26 01:42:30;;;;;;;;;18.00;17.50;;;;;11.44;52.51;101213.09;2087330;28;46193;-70
2023/04/26 01:43:31;;;;;;;;;18.75;18.75;;;;;11.42;52.72;101210.44;2079913;28;45478;-69
2023/04/26 01:44:31;;;;;;;;;16.25;15.00;;;;;11.40;52.81;101219.34;2084712;28;45858;-69
2023/04/26 01:45:32;;;;;;;;;15.25;15.25;;;;;11.39;52.83;101213.16;2088072;28;46423;-68
2023/04/26 01:46:32;;;;;;;;;15.25;14.75;;;;;11.38;52.66;101221.16;2096255;28;46254;-69
2023/04/26 01:47:32;;;;;;;;;18.50;17.75;;;;;11.37;52.73;101212.31;2084120;28;45566;-69
2023/04/26 01:48:33;;;;;;;;;19.75;19.75;;;;;11.37;52.86;101207.00;2088391;28;45940;-70
2023/04/26 01:49:33;;;;;;;;;21.25;20.75;;;;;11.37;53.06;101211.44;2093326;28;46214;-69
2023/04/26 01:50:33;;;;;;;;;27.25;16.75;;;;;11.37;52.83;101211.44;2089730;28;47322;-69
2023/04/26 01:51:34;;;;;;;;;16.25;16.25;;;;;11.37;52.71;101209.66;2089427;28;45500;-70
2023/04/26 01:52:34;;;;;;;;;16.50;12.75;;;;;11.36;52.86;101213.22;2085991;28;45472;-69
2023/04/26 01:53:34;;;;;;;;;20.50;19.50;;;;;11.37;52.96;101214.09;2088182;28;46724;-70
2023/04/26 01:54:35;;;;;;;;;20.50;19.50;;;;;11.36;52.86;101209.69;2088313;28;46439;-70
2023/04/26 01:55:35;;;;;;;;;17.25;17.00;;;;;11.36;52.98;101225.63;2087899;28;46649;-70
2023/04/26 01:56:36;;;;;;;;;17.00;16.25;;;;;11.35;52.80;101216.78;2088294;28;45674;-70
2023/04/26 01:57:36;;;;;;;;;19.00;16.50;;;;;11.35;52.88;101215.91;2087161;28;46280;-70
2023/04/26 01:58:36;;;;;;;;;17.25;16.50;;;;;11.33;52.57;101217.72;2089031;28;46115;-69
2023/04/26 01:59:37;;;;;;;;;17.25;17.25;;;;;11.31;52.84;101215.09;2096316;28;45813;-69
2023/04/26 02:00:37;;;;;;;;;19.50;16.25;;;;;11.31;52.82;101215.09;2096806;28;45679;-71
2023/04/26 02:01:40;;;;;;;;;18.00;17.25;;;;;11.31;52.69;101219.53;2089616;28;46568;-69
2023/04/26 02:02:40;;;;;;;;;13.60;13.60;;;;;11.30;52.91;101210.66;2086541;28;45930;-70
2023/04/26 02:03:41;;;;;;;;;15.00;15.00;;;;;11.28;52.78;101212.47;2088412;28;45839;-71
2023/04/26 02:04:41;;;;;;;;;14.00;14.00;;;;;11.28;52.96;101216.91;2087964;28;45620;-71
2023/04/26 02:05:41;;;;;;;;;12.25;12.25;;;;;11.27;52.85;101208.06;2088264;28;45744;-70
2023/04/26 02:06:42;;;;;;;;;12.00;11.00;;;;;11.26;52.98;101211.63;2088258;28;45605;-69
2023/04/26 02:07:42;;;;;;;;;14.75;12.50;;;;;11.25;52.83;101209.00;2088350;28;45449;-70
2023/04/26 02:08:42;;;;;;;;;12.50;12.50;;;;;11.24;52.73;101208.13;2088206;28;46017;-68
2023/04/26 02:09:45;;;;;;;;;12.50;12.50;;;;;11.23;52.99;101200.19;2088094;28;45626;-69
2023/04/26 02:10:45;;;;;;;;;11.40;11.20;;;;;11.23;52.73;101198.41;2080408;28;45685;-72
2023/04/26 02:11:45;;;;;;;;;15.75;15.25;;;;;11.22;53.16;101190.44;2082809;28;46273;-69
2023/04/26 02:12:46;;;;;;;;;13.00;12.50;;;;;11.22;53.01;101191.31;2088215;28;47094;-69
2023/04/26 02:13:46;;;;;;;;;14.75;13.00;;;;;11.25;53.09;101185.09;2093188;28;46573;-70
2023/04/26 02:14:46;;;;;;;;;16.50;15.50;;;;;11.25;53.09;101195.72;2078627;28;46131;-70
2023/04/26 02:15:48;;;;;;;;;13.50;12.25;;;;;11.23;52.97;101187.78;2086761;28;45924;-70
2023/04/26 02:16:50;;;;;;;;;14.60;14.40;;;;;11.24;52.92;101194.84;2080750;28;46766;-71
2023/04/26 02:17:52;;;;;;;;;14.60;13.00;;;;;11.24;52.80;101194.84;2070813;28;46583;-70
2023/04/26 02:18:53;;;;;;;;;14.20;13.20;;;;;11.23;52.85;101193.09;2070789;28;45003;-70
2023/04/26 02:19:54;;;;;;;;;16.40;12.80;;;;;11.22;52.84;101194.00;2078979;28;45196;-70
2023/04/26 02:20:54;;;;;;;;;11.00;11.00;;;;;11.22;52.98;101190.44;2078798;28;45650;-68
2023/04/26 02:21:56;;;;;;;;;15.00;14.25;;;;;11.21;53.11;101189.59;2078602;28;46419;-69
2023/04/26 02:22:57;;;;;;;;;13.60;13.60;;;;;11.21;53.07;101197.56;2079079;28;45640;-69
2023/04/26 02:23:57;;;;;;;;;16.50;14.75;;;;;11.20;52.99;101196.66;2079117;28;45269;-69
2023/04/26 02:24:57;;;;;;;;;14.50;12.50;;;;;11.19;52.75;101192.25;2078478;28;45847;-69
2023/04/26 02:25:58;;;;;;;;;16.75;16.00;;;;;11.19;53.00;101196.69;2078968;28;45901;-69
2023/04/26 02:27:02;;;;;;;;;17.75;14.75;;;;;11.18;53.18;101193.16;2083790;28;46336;-69
2023/04/26 02:28:03;;;;;;;;;17.00;16.80;;;;;11.17;52.96;101195.81;2086778;28;46104;-70
2023/04/26 02:29:03;;;;;;;;;13.40;13.00;;;;;11.17;53.31;101201.13;2085508;28;45350;-69
2023/04/26 02:30:04;;;;;;;;;16.00;15.75;;;;;11.17;53.16;101203.78;2070307;28;46270;-70
2023/04/26 02:31:05;;;;;;;;;15.80;15.80;;;;;11.17;53.12;101211.75;2070696;28;45140;-70
2023/04/26 02:32:06;;;;;;;;;16.00;13.75;;;;;11.16;53.14;101202.91;2078757;28;46325;-69
2023/04/26 02:33:07;;;;;;;;;14.20;14.20;;;;;11.17;53.11;101201.13;2082793;28;46763;-69
2023/04/26 02:34:08;;;;;;;;;18.00;14.60;;;;;11.18;53.33;101200.25;2086802;28;46896;-70
2023/04/26 02:35:09;;;;;;;;;14.00;14.00;;;;;11.17;53.46;101207.31;2086922;28;46345;-70
2023/04/26 02:36:09;;;;;;;;;19.60;16.80;;;;;11.18;53.19;101206.44;2087142;28;45666;-70
2023/04/26 02:37:10;;;;;;;;;12.25;12.25;;;;;11.17;53.25;101198.47;2087250;28;46927;-70
2023/04/26 02:38:10;;;;;;;;;16.75;13.00;;;;;11.17;53.20;101198.47;2086439;28;45710;-70
2023/04/26 02:39:11;;;;;;;;;15.50;14.75;;;;;11.16;53.05;101200.25;2078828;28;46360;-70
2023/04/26 02:40:12;;;;;;;;;15.25;14.00;;;;;11.16;53.14;101200.25;2087337;28;45926;-69
2023/04/26 02:41:12;;;;;;;;;10.80;9.60;;;;;11.17;53.24;101201.13;2082702;28;45682;-70
2023/04/26 02:42:12;;;;;;;;;12.50;11.00;;;;;11.17;53.06;101206.44;2065728;28;46781;-70
2023/04/26 02:43:13;;;;;;;;;12.50;11.50;;;;;11.17;53.37;101202.00;2070123;28;46532;-68
2023/04/26 02:44:13;;;;;;;;;12.00;12.00;;;;;11.16;53.03;101197.59;2078746;28;46672;-70
2023/04/26 02:45:13;;;;;;;;;16.00;14.75;;;;;11.16;53.10;101194.94;2075454;28;46798;-69
2023/04/26 02:46:14;;;;;;;;;13.00;13.00;;;;;11.16;53.10;101192.28;2079770;28;45634;-69
2023/04/26 02:47:15;;;;;;;;;14.75;14.75;;;;;11.17;53.30;101196.69;2087508;28;46516;-69
2023/04/26 02:48:15;;;;;;;;;12.20;12.20;;;;;11.17;53.10;101193.16;2087606;28;47674;-70
2023/04/26 02:49:16;;;;;;;;;11.50;11.50;;;;;11.16;53.34;101196.72;2087242;28;46616;-69
2023/04/26 02:50:16;;;;;;;;;13.50;11.25;;;;;11.14;53.26;101190.56;2088132;28;45620;-70
2023/04/26 02:51:16;;;;;;;;;11.00;10.25;;;;;11.13;53.14;101191.47;2087442;28;46306;-70
2023/04/26 02:52:17;;;;;;;;;12.00;9.00;;;;;11.12;53.17;101187.06;2087448;28;46354;-68
2023/04/26 02:53:17;;;;;;;;;17.25;15.75;;;;;11.11;53.28;101185.31;2095544;28;46601;-69
2023/04/26 02:54:17;;;;;;;;;13.50;13.50;;;;;11.09;53.34;101179.16;2095980;28;45919;-71
2023/04/26 02:55:18;;;;;;;;;12.25;12.25;;;;;11.10;53.31;101180.91;2094873;28;46517;-70
2023/04/26 02:56:18;;;;;;;;;12.75;12.75;;;;;11.09;53.22;101185.34;2094993;28;46060;-70
2023/04/26 02:57:18;;;;;;;;;18.75;14.00;;;;;11.09;53.50;101177.38;2096115;28;46531;-69
2023/04/26 02:58:19;;;;;;;;;14.25;13.00;;;;;11.10;53.21;101186.22;2096083;28;46462;-69
2023/04/26 02:59:19;;;;;;;;;14.00;14.00;;;;;11.11;53.27;101183.53;2095420;28;46897;-69
2023/04/26 03:00:21;;;;;;;;;13.00;13.00;;;;;11.11;53.36;101182.66;2087290;28;46456;-69
2023/04/26 03:01:21;;;;;;;;;14.20;14.20;;;;;11.13;53.41;101183.50;2078949;28;45500;-69
2023/04/26 03:02:21;;;;;;;;;12.50;11.00;;;;;11.14;53.43;101183.47;2083025;28;46512;-70
2023/04/26 03:03:21;;;;;;;;;14.00;12.00;;;;;11.15;53.23;101173.72;2087793;28;45574;-70
2023/04/26 03:04:22;;;;;;;;;11.25;11.25;;;;;11.15;53.33;101181.69;2088145;28;45130;-70
2023/04/26 03:05:22;;;;;;;;;13.00;13.00;;;;;11.15;53.48;101184.34;2088190;28;45930;-70
2023/04/26 03:06:22;;;;;;;;;20.00;16.50;;;;;11.14;53.46;101182.59;2095169;28;45250;-69
2023/04/26 03:07:23;;;;;;;;;21.75;21.50;;;;;11.12;53.17;101184.41;2094923;28;46160;-70
2023/04/26 03:08:23;;;;;;;;;18.75;15.50;;;;;11.11;53.34;101183.53;2095272;28;46285;-70
2023/04/26 03:09:23;;;;;;;;;16.75;16.75;;;;;11.08;53.01;101186.25;2095554;28;45140;-70
2023/04/26 03:10:24;;;;;;;;;17.50;17.50;;;;;11.09;53.59;101187.13;2095481;28;45217;-70
2023/04/26 03:11:24;;;;;;;;;16.75;13.25;;;;;11.09;53.66;101184.47;2095612;28;46317;-70
2023/04/26 03:12:25;;;;;;;;;16.00;14.50;;;;;11.07;53.42;101181.84;2087224;28;44919;-70
2023/04/26 03:13:26;;;;;;;;;13.20;13.20;;;;;11.08;53.40;101188.03;2087489;28;45964;-70
2023/04/26 03:14:26;;;;;;;;;16.75;15.25;;;;;11.07;53.73;101188.94;2086386;28;46617;-69
2023/04/26 03:15:27;;;;;;;;;17.00;13.50;;;;;11.07;53.44;101191.59;2092201;28;46211;-71
2023/04/26 03:16:27;;;;;;;;;11.50;11.00;;;;;11.08;53.38;101190.69;2094648;28;46488;-69
2023/04/26 03:17:27;;;;;;;;;14.75;14.75;;;;;11.07;53.44;101181.84;2094851;28;46482;-69
2023/04/26 03:18:28;;;;;;;;;13.00;13.00;;;;;11.08;53.54;101180.06;2095291;28;46086;-71
2023/04/26 03:19:28;;;;;;;;;17.00;16.75;;;;;11.07;53.61;101183.63;2095260;28;45800;-71
2023/04/26 03:20:28;;;;;;;;;15.25;15.25;;;;;11.07;53.44;101178.31;2090332;28;46488;-70
2023/04/26 03:21:29;;;;;;;;;16.75;14.50;;;;;11.07;53.32;101176.53;2087037;28;45874;-69
2023/04/26 03:22:29;;;;;;;;;13.00;12.25;;;;;11.07;53.54;101180.97;2094442;28;45863;-70
2023/04/26 03:23:29;;;;;;;;;17.50;16.50;;;;;11.07;53.40;101178.31;2095168;28;45169;-69
2023/04/26 03:24:30;;;;;;;;;17.75;16.25;;;;;11.06;53.61;101176.56;2095239;28;46212;-70
2023/04/26 03:25:32;;;;;;;;;18.00;16.75;;;;;11.06;53.51;101168.59;2094919;28;45733;-69
2023/04/26 03:26:32;;;;;;;;;10.40;10.40;;;;;11.05;53.53;101175.69;2095300;28;45131;-69
2023/04/26 03:27:32;;;;;;;;;16.75;16.75;;;;;11.06;53.64;101172.13;2095189;28;45873;-70
2023/04/26 03:28:33;;;;;;;;;9.50;8.25;;;;;11.07;53.78;101181.84;2094953;28;46477;-70
2023/04/26 03:29:33;;;;;;;;;13.25;11.75;;;;;11.07;53.47;101184.50;2095139;28;46561;-70
2023/04/26 03:30:33;;;;;;;;;14.50;13.75;;;;;11.07;53.73;101181.84;2094744;28;46570;-69
2023/04/26 03:31:34;;;;;;;;;14.00;13.25;;;;;11.07;53.64;101184.50;2095198;28;45595;-69
2023/04/26 03:32:34;;;;;;;;;12.75;12.75;;;;;11.07;53.67;101179.19;2087670;28;45792;-70
2023/04/26 03:33:34;;;;;;;;;16.75;14.00;;;;;11.07;53.56;101180.97;2092855;28;46543;-69
2023/04/26 03:34:35;;;;;;;;;11.00;10.25;;;;;11.07;53.32;101180.97;2085812;28;46425;-69
2023/04/26 03:35:35;;;;;;;;;15.00;15.00;;;;;11.06;53.43;101176.56;2086864;28;46267;-69
2023/04/26 03:36:36;;;;;;;;;12.25;12.25;;;;;11.05;53.53;101180.09;2095249;28;46280;-68
2023/04/26 03:37:38;;;;;;;;;13.00;11.75;;;;;11.03;53.42;101184.56;2093680;28;45768;-69
2023/04/26 03:38:38;;;;;;;;;12.80;12.80;;;;;11.04;53.44;101181.00;2087456;28;46358;-70
2023/04/26 03:39:39;;;;;;;;;20.00;15.50;;;;;11.03;53.41;101182.78;2087776;28;45701;-70
2023/04/26 03:40:39;;;;;;;;;16.00;16.00;;;;;11.03;53.19;101184.56;2087743;28;46176;-70
2023/04/26 03:41:40;;;;;;;;;15.00;14.25;;;;;11.01;53.56;101181.91;2087083;28;46689;-70
2023/04/26 03:42:40;;;;;;;;;14.00;14.00;;;;;11.01;53.56;101181.03;2087944;28;46669;-70
2023/04/26 03:43:40;;;;;;;;;15.00;14.25;;;;;11.02;53.23;101180.13;2087915;28;45740;-70
2023/04/26 03:44:41;;;;;;;;;14.00;14.00;;;;;11.02;53.43;101182.81;2088050;28;45946;-68
2023/04/26 03:45:41;;;;;;;;;15.50;13.25;;;;;11.02;53.39;101178.34;2087503;28;46448;-71
2023/04/26 03:46:42;;;;;;;;;18.00;14.25;;;;;11.02;53.53;101177.47;2087559;28;46685;-69
2023/04/26 03:47:42;;;;;;;;;10.75;10.75;;;;;11.03;53.53;101180.13;2086638;28;46330;-69
2023/04/26 03:48:42;;;;;;;;;14.00;14.00;;;;;11.05;53.27;101177.44;2087156;28;46418;-68
2023/04/26 03:49:43;;;;;;;;;16.75;13.25;;;;;11.05;53.25;101169.47;2087743;28;45805;-70
2023/04/26 03:50:44;;;;;;;;;14.00;14.00;;;;;11.06;53.20;101173.91;2087880;28;45451;-69
2023/04/26 03:51:45;;;;;;;;;12.40;11.20;;;;;11.06;53.36;101171.25;2087456;28;47015;-70
2023/04/26 03:52:45;;;;;;;;;15.75;12.00;;;;;11.06;53.12;101174.78;2087318;28;46682;-69
2023/04/26 03:53:47;;;;;;;;;14.25;12.25;;;;;11.06;53.60;101171.25;2087367;28;46054;-69
2023/04/26 03:54:47;;;;;;;;;15.60;15.40;;;;;11.05;53.30;101172.13;2095468;28;46515;-70
2023/04/26 03:55:48;;;;;;;;;14.25;14.25;;;;;11.05;53.45;101173.03;2096327;28;45195;-69
2023/04/26 03:56:48;;;;;;;;;16.50;15.00;;;;;11.05;53.19;101172.13;2103516;28;46617;-70
2023/04/26 03:57:48;;;;;;;;;17.25;14.75;;;;;11.05;53.18;101181.00;2104025;28;45756;-69
2023/04/26 03:58:49;;;;;;;;;13.75;13.75;;;;;11.07;53.41;101179.19;2095948;28;46471;-70
2023/04/26 03:59:49;;;;;;;;;15.50;15.50;;;;;11.06;53.21;101172.13;2103554;28;45658;-68
2023/04/26 04:00:50;;;;;;;;;15.00;15.00;;;;;11.07;53.49;101170.34;2103773;27;46330;-69
2023/04/26 04:01:50;;;;;;;;;13.50;13.50;;;;;11.09;53.27;101171.19;2097273;28;45979;-69
2023/04/26 04:02:50;;;;;;;;;13.00;13.00;;;;;11.08;53.16;101170.31;2097531;28;46438;-69
2023/04/26 04:03:51;;;;;;;;;16.00;15.25;;;;;11.09;53.32;101165.88;2094019;28;45919;-69
2023/04/26 04:04:51;;;;;;;;;16.00;14.50;;;;;11.09;53.07;101166.75;2093545;28;45195;-69
2023/04/26 04:05:52;;;;;;;;;13.25;13.25;;;;;11.09;53.37;101169.41;2094978;28;45547;-70
2023/04/26 04:06:52;;;;;;;;;18.75;15.00;;;;;11.10;53.26;101172.94;2096349;28;46403;-69
2023/04/26 04:07:52;;;;;;;;;19.50;18.00;;;;;11.09;53.21;101173.84;2088954;28;46424;-70
2023/04/26 04:08:53;;;;;;;;;14.75;14.75;;;;;11.08;53.17;101166.78;2089311;28;46272;-69
2023/04/26 04:09:53;;;;;;;;;15.00;13.00;;;;;11.09;53.29;101163.22;2089464;28;45919;-69
2023/04/26 04:10:55;;;;;;;;;16.75;16.75;;;;;11.10;53.15;101167.63;2095673;28;46217;-70
2023/04/26 04:11:56;;;;;;;;;17.40;14.80;;;;;11.08;53.38;101172.97;2094630;28;46463;-69
2023/04/26 04:12:56;;;;;;;;;13.75;13.75;;;;;11.08;53.19;101174.75;2080710;28;46430;-69
2023/04/26 04:13:56;;;;;;;;;14.75;14.75;;;;;11.08;53.34;101174.75;2086325;28;45025;-68
2023/04/26 04:14:57;;;;;;;;;17.25;15.50;;;;;11.07;53.33;101170.34;2089751;28;45876;-69
2023/04/26 04:15:57;;;;;;;;;17.50;15.25;;;;;11.05;53.33;101173.03;2097260;28;46283;-69
2023/04/26 04:16:58;;;;;;;;;12.50;12.50;;;;;11.06;53.15;101174.78;2090821;28;45776;-71
2023/04/26 04:17:58;;;;;;;;;16.00;15.00;;;;;11.06;53.46;101182.75;2089036;28;46733;-68
2023/04/26 04:18:59;;;;;;;;;15.75;14.75;;;;;11.08;53.32;101182.72;2096143;28;44841;-70
2023/04/26 04:20:00;;;;;;;;;18.50;18.25;;;;;11.07;53.34;101180.97;2097036;28;46854;-68
2023/04/26 04:21:01;;;;;;;;;15.00;13.00;;;;;11.07;53.14;101180.97;2087804;28;45840;-68
2023/04/26 04:22:01;;;;;;;;;16.75;14.75;;;;;11.07;53.48;101183.63;2093896;28;46970;-70
2023/04/26 04:23:05;;;;;;;;;16.25;16.25;;;;;11.06;53.39;101182.75;2097428;28;45524;-69
2023/04/26 04:24:05;;;;;;;;;14.20;13.60;;;;;11.06;53.36;101179.22;2097296;28;48130;-71
2023/04/26 04:25:08;;;;;;;;;15.00;13.00;;;;;11.04;53.26;101181.88;2092589;28;46761;-68
2023/04/26 04:26:11;;;;;;;;;16.80;16.80;;;;;11.04;53.51;101175.69;2088863;28;46533;-70
2023/04/26 04:27:11;;;;;;;;;18.40;15.00;;;;;11.04;53.29;101181.88;2097156;28;45412;-70
2023/04/26 04:28:12;;;;;;;;;16.25;15.25;;;;;11.03;53.51;101179.25;2093860;28;45655;-69
2023/04/26 04:29:12;;;;;;;;;16.75;16.75;;;;;11.03;53.45;101171.28;2089065;28;46247;-70
2023/04/26 04:30:13;;;;;;;;;15.75;15.00;;;;;11.03;53.58;101173.94;2083967;28;46492;-69
2023/04/26 04:31:14;;;;;;;;;15.25;15.00;;;;;11.03;53.30;101174.81;2082141;28;46919;-68
2023/04/26 04:32:14;;;;;;;;;14.75;13.50;;;;;11.02;53.31;101177.47;2088834;28;46424;-68
2023/04/26 04:33:16;;;;;;;;;15.50;15.50;;;;;11.02;53.42;101161.56;2093983;28;45833;-70
2023/04/26 04:34:16;;;;;;;;;14.40;14.40;;;;;11.02;53.60;101175.72;2097081;28;46127;-69
2023/04/26 04:35:17;;;;;;;;;14.75;13.25;;;;;11.02;53.36;101170.41;2097093;28;46141;-71
2023/04/26 04:36:17;;;;;;;;;15.00;15.00;;;;;11.03;53.25;101174.81;2096136;28;45987;-69